createdAt,value
2018-05-05T00:00:44.791Z,97716.41
2018-05-05T00:03:13.568Z,97716.05
2018-05-05T00:05:42.702Z,97710.83
2018-05-05T00:08:12.607Z,97712.16
2018-05-05T00:10:41.356Z,97711.41
2018-05-05T00:13:10.090Z,97715.47
2018-05-05T00:15:38.865Z,97716.19
2018-05-05T00:18:07.660Z,97720.00
2018-05-05T00:20:36.436Z,97727.22
2018-05-05T00:23:05.168Z,97724.25
2018-05-05T00:25:33.916Z,97715.78
2018-05-05T00:28:02.685Z,97717.52
2018-05-05T00:30:32.258Z,97728.90
2018-05-05T00:33:01.063Z,97719.95
2018-05-05T00:35:30.579Z,97702.58
2018-05-05T00:38:00.184Z,97694.95
2018-05-05T00:40:29.720Z,97693.22
2018-05-05T00:42:58.440Z,97696.48
2018-05-05T00:45:27.309Z,97678.67
2018-05-05T00:47:56.067Z,97679.72
2018-05-05T00:50:25.147Z,97676.77
2018-05-05T00:52:53.913Z,97671.66
2018-05-05T00:55:22.632Z,97673.39
2018-05-05T00:57:51.389Z,97683.77
2018-05-05T01:00:21.092Z,97690.15
2018-05-05T01:02:49.968Z,97682.66
2018-05-05T01:05:19.497Z,97676.59
2018-05-05T01:07:48.473Z,97671.45
2018-05-05T01:10:17.231Z,97666.59
2018-05-05T01:12:46.010Z,97658.94
2018-05-05T01:15:14.861Z,97655.50
2018-05-05T01:17:44.371Z,97652.26
2018-05-05T01:20:13.270Z,97646.25
2018-05-05T01:22:43.109Z,97640.05
2018-05-05T01:25:17.502Z,97646.06
2018-05-05T01:27:46.303Z,97646.46
2018-05-05T01:30:15.024Z,97648.34
2018-05-05T01:32:44.574Z,97645.73
2018-05-05T01:35:13.509Z,97638.16
2018-05-05T01:37:43.355Z,97639.89
2018-05-05T01:40:12.170Z,97642.68
2018-05-05T01:42:40.902Z,97641.09
2018-05-05T01:45:09.694Z,97640.63
2018-05-05T01:47:38.445Z,97629.64
2018-05-05T01:50:07.995Z,97629.85
2018-05-05T01:52:36.775Z,97633.03
2018-05-05T01:55:05.566Z,97639.47
2018-05-05T01:57:35.082Z,97639.88
2018-05-05T02:00:03.864Z,97639.69
2018-05-05T02:02:32.638Z,97654.05
2018-05-05T02:05:01.387Z,97653.08
2018-05-05T02:07:30.158Z,97659.92
2018-05-05T02:09:59.313Z,97671.84
2018-05-05T02:12:28.111Z,97659.86
2018-05-05T02:14:56.848Z,97675.09
2018-05-05T02:17:25.633Z,97673.58
2018-05-05T02:19:54.393Z,97677.23
2018-05-05T02:22:23.121Z,97680.16
2018-05-05T02:24:51.912Z,97673.76
2018-05-05T02:27:20.696Z,97676.36
2018-05-05T02:29:49.717Z,97685.44
2018-05-05T02:32:19.098Z,97676.02
2018-05-05T02:34:47.852Z,97685.63
2018-05-05T02:37:16.688Z,97690.05
2018-05-05T02:39:45.404Z,97688.67
2018-05-05T02:42:15.086Z,97684.91
2018-05-05T02:44:43.855Z,97696.63
2018-05-05T02:47:12.606Z,97699.31
2018-05-05T02:49:41.360Z,97689.06
2018-05-05T02:52:10.927Z,97689.78
2018-05-05T02:54:39.709Z,97687.48
2018-05-05T02:57:08.450Z,97676.07
2018-05-05T02:59:38.024Z,97663.03
2018-05-05T03:02:06.838Z,97672.24
2018-05-05T03:04:35.588Z,97686.52
2018-05-05T03:07:04.395Z,97678.03
2018-05-05T03:09:33.117Z,97671.10
2018-05-05T03:12:01.905Z,97663.83
2018-05-05T03:14:30.807Z,97667.52
2018-05-05T03:16:59.625Z,97671.89
2018-05-05T03:19:28.441Z,97660.92
2018-05-05T03:21:57.351Z,97659.73
2018-05-05T03:24:26.125Z,97660.19
2018-05-05T03:26:54.969Z,97667.77
2018-05-05T03:29:23.727Z,97656.40
2018-05-05T03:31:52.491Z,97654.00
2018-05-05T03:34:21.250Z,97646.66
2018-05-05T03:36:50.010Z,97641.80
2018-05-05T03:39:18.738Z,97649.02
2018-05-05T03:41:47.520Z,97656.20
2018-05-05T03:44:16.273Z,97669.41
2018-05-05T03:46:45.011Z,97670.91
2018-05-05T03:49:14.702Z,97651.43
2018-05-05T03:51:44.296Z,97640.78
2018-05-05T03:54:14.957Z,97639.36
2018-05-05T03:56:44.489Z,97640.48
2018-05-05T03:59:26.038Z,97643.92
2018-05-05T04:02:06.487Z,97640.56
2018-05-05T04:04:35.332Z,97652.95
2018-05-05T04:07:04.084Z,97661.31
2018-05-05T04:09:32.862Z,97657.41
2018-05-05T04:12:01.625Z,97649.67
2018-05-05T04:14:30.455Z,97644.22
2018-05-05T04:16:59.972Z,97643.88
2018-05-05T04:19:28.741Z,97643.23
2018-05-05T04:21:57.534Z,97635.36
2018-05-05T04:24:26.322Z,97627.21
2018-05-05T04:26:55.079Z,97629.22
2018-05-05T04:29:23.882Z,97612.59
2018-05-05T04:31:53.432Z,97602.64
2018-05-05T04:34:22.207Z,97596.05
2018-05-05T04:36:50.957Z,97587.28
2018-05-05T04:39:20.464Z,97560.77
2018-05-05T04:41:50.084Z,97540.06
2018-05-05T04:44:18.903Z,97537.16
2018-05-05T04:46:47.709Z,97537.31
2018-05-05T04:49:16.497Z,97533.77
2018-05-05T04:51:45.231Z,97530.30
2018-05-05T04:54:14.660Z,97537.36
2018-05-05T04:56:43.425Z,97532.03
2018-05-05T04:59:12.184Z,97530.80
2018-05-05T05:01:40.936Z,97521.55
2018-05-05T05:04:09.724Z,97520.45
2018-05-05T05:06:39.134Z,97530.55
2018-05-05T05:09:07.886Z,97527.61
2018-05-05T05:11:38.630Z,97523.30
2018-05-05T05:14:08.785Z,97524.95
2018-05-05T05:16:39.447Z,97522.41
2018-05-05T05:19:09.308Z,97534.94
2018-05-05T05:21:38.408Z,97541.12
2018-05-05T05:24:07.132Z,97543.95
2018-05-05T05:26:38.856Z,97548.77
2018-05-05T05:29:08.316Z,97544.21
2018-05-05T05:31:38.414Z,97547.56
2018-05-05T05:34:07.247Z,97542.84
2018-05-05T05:36:35.971Z,97542.09
2018-05-05T05:39:05.561Z,97541.67
2018-05-05T05:41:34.338Z,97551.69
2018-05-05T05:44:05.298Z,97546.75
2018-05-05T05:46:36.577Z,97546.13
2018-05-05T05:49:05.291Z,97544.45
2018-05-05T05:51:34.530Z,97551.33
2018-05-05T05:54:03.278Z,97550.48
2018-05-05T05:56:32.028Z,97546.45
2018-05-05T05:59:00.870Z,97545.07
2018-05-05T06:01:29.627Z,97545.19
2018-05-05T06:03:58.377Z,97542.52
2018-05-05T06:06:27.180Z,97538.52
2018-05-05T06:08:55.908Z,97543.01
2018-05-05T06:11:25.478Z,97541.63
2018-05-05T06:13:54.289Z,97547.63
2018-05-05T06:16:23.070Z,97550.31
2018-05-05T06:18:51.835Z,97547.41
2018-05-05T06:21:20.592Z,97543.98
2018-05-05T06:23:49.389Z,97551.78
2018-05-05T06:26:18.140Z,97558.61
2018-05-05T06:28:46.911Z,97561.02
2018-05-05T06:31:15.696Z,97564.63
2018-05-05T06:33:45.379Z,97557.73
2018-05-05T06:36:14.136Z,97561.91
2018-05-05T06:38:42.913Z,97570.15
2018-05-05T06:41:11.825Z,97572.68
2018-05-05T06:43:41.314Z,97577.13
2018-05-05T06:46:10.818Z,97572.37
2018-05-05T06:48:39.565Z,97579.34
2018-05-05T06:51:08.324Z,97581.31
2018-05-05T06:53:37.189Z,97575.39
2018-05-05T06:56:06.692Z,97572.14
2018-05-05T06:58:36.311Z,97576.59
2018-05-05T07:01:05.115Z,97569.47
2018-05-05T07:03:33.885Z,97578.14
2018-05-05T07:06:03.391Z,97590.17
2018-05-05T07:08:32.154Z,97583.31
2018-05-05T07:11:01.015Z,97581.97
2018-05-05T07:13:29.762Z,97594.11
2018-05-05T07:15:59.468Z,97611.30
2018-05-05T07:18:28.194Z,97609.48
2018-05-05T07:20:56.912Z,97597.69
2018-05-05T07:23:25.695Z,97605.52
2018-05-05T07:25:54.454Z,97606.09
2018-05-05T07:28:23.223Z,97617.47
2018-05-05T07:30:52.029Z,97619.28
2018-05-05T07:33:20.796Z,97631.56
2018-05-05T07:35:49.566Z,97643.13
2018-05-05T07:38:19.108Z,97650.98
2018-05-05T07:40:47.976Z,97668.91
2018-05-05T07:43:16.815Z,97678.27
2018-05-05T07:45:45.953Z,97673.78
2018-05-05T07:48:14.751Z,97673.17
2018-05-05T07:50:43.501Z,97689.50
2018-05-05T07:53:12.301Z,97687.42
2018-05-05T07:55:41.035Z,97686.16
2018-05-05T07:58:09.789Z,97691.46
2018-05-05T08:00:38.520Z,97691.64
2018-05-05T08:03:07.263Z,97688.08
2018-05-05T08:05:36.460Z,97696.60
2018-05-05T08:08:05.190Z,97695.53
2018-05-05T08:10:34.707Z,97699.81
2018-05-05T08:13:03.462Z,97702.19
2018-05-05T08:15:32.250Z,97704.41
2018-05-05T08:18:01.004Z,97710.97
2018-05-05T08:20:29.773Z,97711.62
2018-05-05T08:22:58.555Z,97714.29
2018-05-05T08:25:27.452Z,97717.13
2018-05-05T08:27:56.755Z,97724.63
2018-05-05T08:30:25.536Z,97727.54
2018-05-05T08:32:54.355Z,97729.71
2018-05-05T08:35:23.136Z,97723.91
2018-05-05T08:37:51.986Z,97727.97
2018-05-05T08:40:20.746Z,97722.03
2018-05-05T08:42:50.259Z,97720.61
2018-05-05T08:45:19.052Z,97721.93
2018-05-05T08:47:47.807Z,97711.43
2018-05-05T08:50:17.288Z,97719.01
2018-05-05T08:52:47.315Z,97725.19
2018-05-05T08:55:16.686Z,97722.20
2018-05-05T08:57:46.534Z,97721.66
2018-05-05T09:00:15.376Z,97734.53
2018-05-05T09:02:44.207Z,97741.28
2018-05-05T09:05:13.748Z,97732.78
2018-05-05T09:07:42.516Z,97740.11
2018-05-05T09:10:11.301Z,97741.20
2018-05-05T09:12:40.072Z,97747.53
2018-05-05T09:15:08.876Z,97749.59
2018-05-05T09:17:37.890Z,97756.92
2018-05-05T09:20:06.680Z,97754.13
2018-05-05T09:22:35.476Z,97760.72
2018-05-05T09:25:04.535Z,97758.35
2018-05-05T09:27:33.390Z,97759.80
2018-05-05T09:30:02.192Z,97772.31
2018-05-05T09:32:30.989Z,97766.69
2018-05-05T09:34:59.808Z,97765.97
2018-05-05T09:37:28.617Z,97764.64
2018-05-05T09:39:57.405Z,97762.53
2018-05-05T09:42:26.152Z,97758.16
2018-05-05T09:44:54.965Z,97763.15
2018-05-05T09:47:29.523Z,97765.67
2018-05-05T09:49:58.382Z,97772.70
2018-05-05T09:52:27.152Z,97771.84
2018-05-05T09:54:55.916Z,97771.81
2018-05-05T09:57:24.719Z,97767.59
2018-05-05T09:59:53.452Z,97758.86
2018-05-05T10:02:22.242Z,97758.66
2018-05-05T10:04:51.809Z,97761.09
2018-05-05T10:07:20.618Z,97753.22
2018-05-05T10:09:49.374Z,97756.64
2018-05-05T10:12:18.467Z,97756.69
2018-05-05T10:14:47.268Z,97763.48
2018-05-05T10:17:16.038Z,97762.13
2018-05-05T10:19:44.963Z,97764.89
2018-05-05T10:22:14.010Z,97761.68
2018-05-05T10:24:43.546Z,97760.49
2018-05-05T10:27:12.316Z,97766.17
2018-05-05T10:29:41.186Z,97769.91
2018-05-05T10:32:09.909Z,97761.56
2018-05-05T10:34:38.982Z,97757.66
2018-05-05T10:37:07.756Z,97765.05
2018-05-05T10:39:36.591Z,97766.14
2018-05-05T10:42:05.451Z,97760.94
2018-05-05T10:44:34.451Z,97761.95
2018-05-05T10:47:03.185Z,97770.32
2018-05-05T10:49:32.169Z,97761.41
2018-05-05T10:52:00.914Z,97759.22
2018-05-05T10:54:30.491Z,97763.03
2018-05-05T10:56:59.269Z,97757.16
2018-05-05T10:59:28.021Z,97751.75
2018-05-05T11:01:56.820Z,97751.08
2018-05-05T11:04:25.601Z,97750.64
2018-05-05T11:06:54.440Z,97750.28
2018-05-05T11:09:23.161Z,97757.58
2018-05-05T11:11:51.956Z,97744.26
2018-05-05T11:14:20.788Z,97746.59
2018-05-05T11:16:49.615Z,97752.09
2018-05-05T11:19:18.372Z,97745.95
2018-05-05T11:21:47.737Z,97739.45
2018-05-05T11:24:16.669Z,97749.97
2018-05-05T11:26:45.432Z,97745.93
2018-05-05T11:29:14.212Z,97750.12
2018-05-05T11:31:42.994Z,97750.38
2018-05-05T11:34:11.762Z,97751.57
2018-05-05T11:36:41.327Z,97750.91
2018-05-05T11:39:10.062Z,97743.84
2018-05-05T11:41:38.836Z,97744.63
2018-05-05T11:44:08.425Z,97738.72
2018-05-05T11:46:37.232Z,97741.77
2018-05-05T11:49:05.983Z,97743.03
2018-05-05T11:51:34.769Z,97736.57
2018-05-05T11:54:03.472Z,97733.94
2018-05-05T11:56:32.296Z,97735.40
2018-05-05T11:59:01.105Z,97733.89
2018-05-05T12:01:29.846Z,97736.55
2018-05-05T12:03:58.603Z,97731.72
2018-05-05T12:06:27.378Z,97733.80
2018-05-05T12:08:56.120Z,97725.38
2018-05-05T12:11:24.927Z,97724.39
2018-05-05T12:13:53.744Z,97723.30
2018-05-05T12:16:22.524Z,97721.13
2018-05-05T12:18:51.294Z,97720.88
2018-05-05T12:21:21.053Z,97719.30
2018-05-05T12:23:50.043Z,97717.16
2018-05-05T12:26:18.936Z,97712.71
2018-05-05T12:28:48.356Z,97715.19
2018-05-05T12:31:19.019Z,97716.20
2018-05-05T12:33:48.445Z,97711.86
2018-05-05T12:36:17.256Z,97711.48
2018-05-05T12:38:46.802Z,97713.69
2018-05-05T12:41:15.575Z,97710.92
2018-05-05T12:43:44.344Z,97702.75
2018-05-05T12:46:13.175Z,97707.11
2018-05-05T12:48:41.971Z,97708.59
2018-05-05T12:51:10.686Z,97701.53
2018-05-05T12:53:39.492Z,97697.70
2018-05-05T12:56:08.279Z,97709.00
2018-05-05T12:58:37.202Z,97708.17
2018-05-05T13:01:05.940Z,97702.73
2018-05-05T13:03:34.680Z,97701.49
2018-05-05T13:06:03.491Z,97695.06
2018-05-05T13:08:32.232Z,97690.92
2018-05-05T13:11:00.943Z,97686.30
2018-05-05T13:13:29.762Z,97684.89
2018-05-05T13:15:58.537Z,97684.30
2018-05-05T13:18:27.366Z,97680.04
2018-05-05T13:20:56.137Z,97680.57
2018-05-05T13:23:24.902Z,97676.90
2018-05-05T13:25:53.701Z,97685.98
2018-05-05T13:28:22.520Z,97680.53
2018-05-05T13:30:51.416Z,97683.09
2018-05-05T13:33:20.178Z,97673.81
2018-05-05T13:35:49.084Z,97676.83
2018-05-05T13:38:18.803Z,97678.45
2018-05-05T13:40:49.410Z,97671.60
2018-05-05T13:43:18.826Z,97667.81
2018-05-05T13:45:48.695Z,97670.16
2018-05-05T13:48:17.450Z,97664.05
2018-05-05T13:50:46.232Z,97657.66
2018-05-05T13:53:15.790Z,97658.94
2018-05-05T13:55:44.673Z,97661.87
2018-05-05T13:58:13.430Z,97653.23
2018-05-05T14:00:42.267Z,97659.64
2018-05-05T14:03:11.191Z,97652.73
2018-05-05T14:05:39.928Z,97644.36
2018-05-05T14:08:08.746Z,97645.59
2018-05-05T14:10:37.649Z,97640.09
2018-05-05T14:13:06.443Z,97637.09
2018-05-05T14:15:35.211Z,97632.48
2018-05-05T14:18:04.012Z,97633.97
2018-05-05T14:20:32.775Z,97626.09
2018-05-05T14:23:01.617Z,97624.58
2018-05-05T14:25:32.752Z,97627.06
2018-05-05T14:28:05.066Z,97618.31
2018-05-05T14:30:33.917Z,97624.55
2018-05-05T14:33:03.366Z,97623.34
2018-05-05T14:35:32.091Z,97619.06
2018-05-05T14:38:01.672Z,97616.59
2018-05-05T14:40:30.477Z,97618.27
2018-05-05T14:42:59.236Z,97613.05
2018-05-05T14:45:28.066Z,97613.66
2018-05-05T14:47:57.167Z,97614.00
2018-05-05T14:50:26.755Z,97612.66
2018-05-05T14:52:55.713Z,97609.70
2018-05-05T14:55:24.446Z,97610.67
2018-05-05T14:57:53.256Z,97603.82
2018-05-05T15:00:21.994Z,97610.37
2018-05-05T15:02:50.761Z,97599.47
2018-05-05T15:05:19.575Z,97610.63
2018-05-05T15:07:49.411Z,97603.58
2018-05-05T15:10:19.985Z,97597.89
2018-05-05T15:12:49.459Z,97594.16
2018-05-05T15:15:18.508Z,97595.39
2018-05-05T15:17:47.326Z,97585.20
2018-05-05T15:20:16.145Z,97582.80
2018-05-05T15:22:45.741Z,97582.63
2018-05-05T15:25:14.560Z,97581.13
2018-05-05T15:27:43.344Z,97582.05
2018-05-05T15:30:12.899Z,97585.33
2018-05-05T15:32:41.686Z,97587.86
2018-05-05T15:35:10.583Z,97585.84
2018-05-05T15:37:39.331Z,97584.97
2018-05-05T15:40:08.117Z,97581.55
2018-05-05T15:42:36.915Z,97579.30
2018-05-05T15:45:05.647Z,97589.58
2018-05-05T15:47:35.476Z,97590.70
2018-05-05T15:50:04.327Z,97583.19
2018-05-05T15:52:33.175Z,97578.75
2018-05-05T15:55:02.776Z,97583.58
2018-05-05T15:57:31.562Z,97584.77
2018-05-05T16:00:00.320Z,97579.78
2018-05-05T16:02:29.408Z,97581.33
2018-05-05T16:04:58.156Z,97583.45
2018-05-05T16:07:26.921Z,97585.05
2018-05-05T16:09:56.489Z,97579.83
2018-05-05T16:12:25.221Z,97584.25
2018-05-05T16:14:53.991Z,97574.09
2018-05-05T16:17:22.818Z,97576.96
2018-05-05T16:19:51.601Z,97571.91
2018-05-05T16:22:21.099Z,97573.06
2018-05-05T16:24:50.616Z,97567.72
2018-05-05T16:27:20.344Z,97575.34
2018-05-05T16:29:49.637Z,97567.31
2018-05-05T16:32:19.582Z,97568.66
2018-05-05T16:34:48.351Z,97573.98
2018-05-05T16:37:17.082Z,97572.71
2018-05-05T16:39:45.899Z,97575.50
2018-05-05T16:42:14.615Z,97567.95
2018-05-05T16:44:43.357Z,97570.50
2018-05-05T16:47:12.131Z,97572.71
2018-05-05T16:49:41.160Z,97568.17
2018-05-05T16:52:09.955Z,97562.97
2018-05-05T16:54:39.501Z,97576.89
2018-05-05T16:57:08.271Z,97576.45
2018-05-05T16:59:37.013Z,97583.59
2018-05-05T17:02:05.824Z,97585.61
2018-05-05T17:04:34.591Z,97587.20
2018-05-05T17:07:03.433Z,97592.02
2018-05-05T17:09:32.187Z,97588.31
2018-05-05T17:12:00.931Z,97591.96
2018-05-05T17:14:30.412Z,97592.48
2018-05-05T17:16:59.208Z,97602.48
2018-05-05T17:19:27.912Z,97604.23
2018-05-05T17:21:56.708Z,97604.88
2018-05-05T17:24:25.515Z,97604.50
2018-05-05T17:26:54.243Z,97603.91
2018-05-05T17:29:23.097Z,97616.07
2018-05-05T17:31:52.199Z,97611.55
2018-05-05T17:34:21.012Z,97626.52
2018-05-05T17:36:49.981Z,97622.15
2018-05-05T17:39:18.807Z,97620.94
2018-05-05T17:41:48.868Z,97621.22
2018-05-05T17:44:17.667Z,97629.84
2018-05-05T17:46:46.485Z,97630.02
2018-05-05T17:49:15.265Z,97633.69
2018-05-05T17:51:44.863Z,97636.54
2018-05-05T17:54:13.609Z,97640.39
2018-05-05T17:56:42.370Z,97635.26
2018-05-05T17:59:11.199Z,97632.63
2018-05-05T18:01:40.143Z,97639.78
2018-05-05T18:04:09.765Z,97648.98
2018-05-05T18:06:38.432Z,97650.59
2018-05-05T18:09:07.181Z,97652.62
2018-05-05T18:11:36.717Z,97651.61
2018-05-05T18:14:05.473Z,97660.41
2018-05-05T18:16:34.635Z,97661.50
2018-05-05T18:19:04.367Z,97652.84
2018-05-05T18:21:33.228Z,97654.47
2018-05-05T18:24:02.106Z,97666.04
2018-05-05T18:26:31.037Z,97662.41
2018-05-05T18:28:59.801Z,97669.66
2018-05-05T18:31:28.582Z,97671.70
2018-05-05T18:33:59.679Z,97673.17
2018-05-05T18:36:28.492Z,97682.34
2018-05-05T18:38:57.279Z,97690.15
2018-05-05T18:41:26.101Z,97686.66
2018-05-05T18:43:54.913Z,97684.66
2018-05-05T18:46:23.708Z,97690.58
2018-05-05T18:48:52.437Z,97697.17
2018-05-05T18:51:21.334Z,97703.88
2018-05-05T18:53:50.465Z,97700.50
2018-05-05T18:56:19.225Z,97705.44
2018-05-05T18:58:48.821Z,97707.95
2018-05-05T19:01:17.802Z,97718.03
2018-05-05T19:03:47.047Z,97715.08
2018-05-05T19:06:16.643Z,97722.70
2018-05-05T19:08:45.337Z,97724.48
2018-05-05T19:11:14.844Z,97726.59
2018-05-05T19:13:44.450Z,97724.73
2018-05-05T19:16:14.098Z,97733.58
2018-05-05T19:18:43.690Z,97735.89
2018-05-05T19:21:12.471Z,97733.52
2018-05-05T19:23:41.199Z,97735.63
2018-05-05T19:26:10.053Z,97731.89
2018-05-05T19:28:38.929Z,97733.44
2018-05-05T19:31:08.592Z,97735.89
2018-05-05T19:33:37.363Z,97741.66
2018-05-05T19:36:06.163Z,97736.31
2018-05-05T19:38:35.003Z,97731.05
2018-05-05T19:41:04.153Z,97742.95
2018-05-05T19:43:34.489Z,97742.22
2018-05-05T19:46:03.549Z,97740.19
2018-05-05T19:48:33.135Z,97746.01
2018-05-05T19:51:02.827Z,97744.43
2018-05-05T19:53:31.909Z,97745.66
2018-05-05T19:56:00.680Z,97744.59
2018-05-05T19:58:29.418Z,97750.86
2018-05-05T20:00:58.171Z,97743.03
2018-05-05T20:03:26.967Z,97748.66
2018-05-05T20:05:55.726Z,97751.19
2018-05-05T20:08:25.255Z,97752.33
2018-05-05T20:10:53.996Z,97751.02
2018-05-05T20:13:22.729Z,97748.98
2018-05-05T20:15:51.552Z,97748.42
2018-05-05T20:18:22.141Z,97754.56
2018-05-05T20:20:51.804Z,97751.68
2018-05-05T20:23:21.080Z,97751.39
2018-05-05T20:25:49.816Z,97754.88
2018-05-05T20:28:18.600Z,97753.50
2018-05-05T20:30:47.337Z,97752.81
2018-05-05T20:33:16.077Z,97747.80
2018-05-05T20:35:44.894Z,97753.03
2018-05-05T20:38:13.711Z,97746.70
2018-05-05T20:40:42.442Z,97745.55
2018-05-05T20:43:11.246Z,97746.02
2018-05-05T20:45:40.412Z,97745.98
2018-05-05T20:48:09.203Z,97747.09
2018-05-05T20:50:38.127Z,97739.63
2018-05-05T20:53:06.859Z,97736.75
2018-05-05T20:55:35.681Z,97741.69
2018-05-05T20:58:04.488Z,97728.26
2018-05-05T21:00:33.236Z,97735.76
2018-05-05T21:03:02.740Z,97732.25
2018-05-05T21:05:32.364Z,97742.67
2018-05-05T21:08:01.241Z,97735.23
2018-05-05T21:10:30.020Z,97739.87
2018-05-05T21:12:58.847Z,97739.95
2018-05-05T21:15:27.617Z,97742.01
2018-05-05T21:17:56.357Z,97731.42
2018-05-05T21:20:25.183Z,97728.34
2018-05-05T21:22:53.904Z,97727.64
2018-05-05T21:25:23.460Z,97727.83
2018-05-05T21:27:52.339Z,97731.06
2018-05-05T21:30:21.439Z,97733.05
2018-05-05T21:32:50.205Z,97736.29
2018-05-05T21:35:18.989Z,97731.75
2018-05-05T21:37:48.533Z,97730.59
2018-05-05T21:40:17.299Z,97722.95
2018-05-05T21:42:46.142Z,97726.27
2018-05-05T21:45:14.893Z,97731.11
2018-05-05T21:47:43.637Z,97721.83
2018-05-05T21:50:12.438Z,97720.41
2018-05-05T21:52:41.331Z,97725.16
2018-05-05T21:55:10.076Z,97728.75
2018-05-05T21:57:38.958Z,97736.02
2018-05-05T22:00:07.701Z,97749.77
2018-05-05T22:02:36.477Z,97747.78
2018-05-05T22:05:05.241Z,97753.56
2018-05-05T22:07:34.005Z,97754.93
2018-05-05T22:10:02.804Z,97751.64
2018-05-05T22:12:31.662Z,97753.45
2018-05-05T22:15:00.574Z,97754.37
2018-05-05T22:17:29.305Z,97758.17
2018-05-05T22:19:58.062Z,97762.00
2018-05-05T22:22:27.601Z,97757.44
2018-05-05T22:24:56.354Z,97757.09
2018-05-05T22:27:25.988Z,97755.70
2018-05-05T22:29:54.720Z,97768.75
2018-05-05T22:32:23.449Z,97762.23
2018-05-05T22:34:53.008Z,97758.75
2018-05-05T22:37:22.046Z,97758.84
2018-05-05T22:39:52.649Z,97759.97
2018-05-05T22:42:22.005Z,97764.27
2018-05-05T22:44:50.774Z,97763.80
2018-05-05T22:47:19.601Z,97755.23
2018-05-05T22:49:48.354Z,97761.00
2018-05-05T22:52:17.940Z,97752.55
2018-05-05T22:54:46.718Z,97752.39
2018-05-05T22:57:15.555Z,97749.19
2018-05-05T22:59:45.130Z,97756.50
2018-05-05T23:02:13.861Z,97756.97
2018-05-05T23:04:42.623Z,97759.52
2018-05-05T23:07:11.471Z,97750.87
2018-05-05T23:09:40.314Z,97749.11
2018-05-05T23:12:09.098Z,97748.52
2018-05-05T23:14:37.859Z,97747.38
2018-05-05T23:17:06.645Z,97749.94
2018-05-05T23:19:36.389Z,97747.34
2018-05-05T23:22:05.189Z,97748.55
2018-05-05T23:24:34.006Z,97746.09
2018-05-05T23:27:02.902Z,97744.22
2018-05-05T23:29:31.660Z,97741.17
2018-05-05T23:32:00.389Z,97739.80
2018-05-05T23:34:29.166Z,97745.85
2018-05-05T23:36:57.952Z,97741.69
2018-05-05T23:39:26.715Z,97736.65
2018-05-05T23:41:56.231Z,97733.70
2018-05-05T23:44:25.052Z,97729.59
2018-05-05T23:46:53.800Z,97728.80
2018-05-05T23:49:22.580Z,97727.83
2018-05-05T23:51:52.438Z,97726.42
2018-05-05T23:54:22.460Z,97719.86
2018-05-05T23:56:52.333Z,97719.33
2018-05-05T23:59:21.053Z,97718.64
